Time;durP1;ratioP1;P1;durP2;ratioP2;P2;SDS_P1;SDS_P2;PMS_P1;PMS_P2;Temp;Humidity;BMP_temperature;BMP_pressure;BME280_temperature;BME280_humidity;BME280_pressure;Samples;Min_cycle;Max_cycle;Signal;HPM_P1;HPM_P2
2022/06/25 00:01:40;;;;;;;;;;;;;;;21.40;30.21;97586.50;5041791;28;919;-80
2022/06/25 00:05:27;;;;;;;;;;;;;;;21.26;30.13;97582.06;5042006;28;963;-79
2022/06/25 00:06:51;;;;;;;;;;;;;;;21.33;29.90;97578.22;5042240;28;961;-79
2022/06/25 00:09:16;;;;;;;;;;;;;;;21.10;30.49;97570.84;5042443;28;941;-80
2022/06/25 00:14:26;;;;;;;;;;;;;;;21.75;30.10;97564.69;5041707;28;886;-79
2022/06/25 00:16:51;;;;;;;;;;;;;;;21.84;29.85;97570.44;5041132;28;1027;-79
2022/06/25 00:19:17;;;;;;;;;;;;;;;21.97;29.80;97572.47;5037742;28;1917;-80
2022/06/25 00:21:42;;;;;;;;;;;;;;;21.58;30.14;97563.25;5038898;28;932;-79
2022/06/25 00:24:08;;;;;;;;;;;;;;;21.42;30.10;97571.91;5039202;28;845;-79
2022/06/25 00:26:33;;;;;;;;;;;;;;;21.32;30.10;97556.84;5038365;28;962;-79
2022/06/25 00:28:59;;;;;;;;;;;;;;;21.43;30.01;97570.66;5038716;28;943;-79
2022/06/25 00:31:24;;;;;;;;;;;;;;;21.56;29.70;97560.09;5038646;28;960;-79
2022/06/25 00:33:50;;;;;;;;;;;;;;;21.43;29.95;97562.16;5038216;28;888;-79
2022/06/25 00:36:15;;;;;;;;;;;;;;;21.41;30.01;97554.13;5038516;28;1168;-79
2022/06/25 00:38:41;;;;;;;;;;;;;;;21.34;30.29;97560.00;5038501;28;919;-80
2022/06/25 00:41:07;;;;;;;;;;;;;;;21.78;29.81;97549.63;5038722;28;1981;-79
2022/06/25 00:43:36;;;;;;;;;;;;;;;22.10;29.36;97547.72;5038457;28;968;-79
2022/06/25 00:46:02;;;;;;;;;;;;;;;21.64;29.70;97555.78;5038424;28;1035;-79
2022/06/25 00:48:27;;;;;;;;;;;;;;;21.38;30.53;97559.88;5038296;28;904;-80
2022/06/25 00:50:53;;;;;;;;;;;;;;;21.42;29.97;97560.56;5038362;28;987;-79
2022/06/25 00:53:18;;;;;;;;;;;;;;;21.45;29.95;97557.63;5020826;28;1108;-78
2022/06/25 00:55:44;;;;;;;;;;;;;;;21.29;30.47;97563.38;5036992;28;933;-79
2022/06/25 00:58:11;;;;;;;;;;;;;;;21.18;30.62;97558.06;5037239;28;926;-79
2022/06/25 01:00:37;;;;;;;;;;;;;;;21.31;30.27;97561.72;5038023;28;1979;-80
2022/06/25 01:03:02;;;;;;;;;;;;;;;21.58;30.04;97551.94;5036834;28;873;-78
2022/06/25 01:05:27;;;;;;;;;;;;;;;21.87;29.37;97548.16;5036907;28;1226;-79
2022/06/25 01:07:53;;;;;;;;;;;;;;;22.05;28.95;97551.13;5036643;28;918;-79
2022/06/25 01:10:18;;;;;;;;;;;;;;;21.61;29.76;97556.69;5037688;28;963;-79
2022/06/25 01:12:44;;;;;;;;;;;;;;;21.50;29.78;97556.25;5038274;28;871;-79
2022/06/25 01:15:17;;;;;;;;;;;;;;;21.45;30.11;97548.31;5036805;28;1132;-79
2022/06/25 01:17:50;;;;;;;;;;;;;;;21.25;30.36;97560.66;5036836;28;897;-79
2022/06/25 01:20:17;;;;;;;;;;;;;;;21.32;29.91;97559.66;5020031;28;1906;-79
2022/06/25 01:22:42;;;;;;;;;;;;;;;21.35;30.10;97555.13;5036538;28;865;-80
2022/06/25 01:25:08;;;;;;;;;;;;;;;21.61;29.83;97556.69;5036455;28;1219;-79
2022/06/25 01:27:34;;;;;;;;;;;;;;;21.94;29.11;97560.00;5036326;28;1510;-80
2022/06/25 01:30:00;;;;;;;;;;;;;;;21.92;29.27;97553.22;5019391;28;1487;-79
2022/06/25 01:32:25;;;;;;;;;;;;;;;21.65;29.57;97551.69;5018571;28;1220;-79
2022/06/25 01:34:51;;;;;;;;;;;;;;;21.43;30.03;97556.50;5034725;28;1010;-79
2022/06/25 01:37:16;;;;;;;;;;;;;;;21.52;29.62;97550.94;5035078;28;982;-79
2022/06/25 01:39:42;;;;;;;;;;;;;;;21.51;29.71;97552.19;5035082;28;1910;-80
2022/06/25 01:42:58;;;;;;;;;;;;;;;21.22;29.96;97564.41;5015035;28;963;-79
2022/06/25 01:44:52;;;;;;;;;;;;;;;21.34;29.61;97562.81;5015403;28;1080;-79
2022/06/25 01:47:18;;;;;;;;;;;;;;;21.29;29.58;97564.16;4998324;28;1004;-79
2022/06/25 01:49:43;;;;;;;;;;;;;;;21.25;29.99;97563.50;5015308;28;1065;-79
2022/06/25 01:52:09;;;;;;;;;;;;;;;21.72;29.40;97562.00;4998806;28;993;-79
2022/06/25 01:54:34;;;;;;;;;;;;;;;21.92;28.85;97558.91;4998642;28;1191;-80
2022/06/25 01:57:00;;;;;;;;;;;;;;;22.20;28.23;97566.41;4998399;28;1179;-79
2022/06/25 01:59:25;;;;;;;;;;;;;;;22.03;28.55;97559.31;4998441;28;1973;-80
2022/06/25 02:01:51;;;;;;;;;;;;;;;21.76;28.94;97560.63;4998660;28;1267;-79
2022/06/25 02:04:16;;;;;;;;;;;;;;;21.40;29.66;97557.38;5015205;28;1432;-79
2022/06/25 02:06:42;;;;;;;;;;;;;;;21.28;29.79;97551.25;4995129;28;1002;-79
2022/06/25 02:09:07;;;;;;;;;;;;;;;21.41;29.19;97554.13;4995219;28;1024;-79
2022/06/25 02:11:33;;;;;;;;;;;;;;;21.44;29.14;97564.53;4978992;28;1124;-80
2022/06/25 02:13:59;;;;;;;;;;;;;;;21.24;29.87;97558.28;4995657;28;1115;-79
2022/06/25 02:16:26;;;;;;;;;;;;;;;21.22;29.91;97563.59;4998280;28;1114;-80
2022/06/25 02:18:51;;;;;;;;;;;;;;;21.24;29.70;97561.91;5014477;28;936;-79
2022/06/25 02:21:18;;;;;;;;;;;;;;;21.08;30.26;97559.97;4998488;28;1910;-80
2022/06/25 02:23:43;;;;;;;;;;;;;;;21.76;28.98;97566.31;4997918;28;967;-79
2022/06/25 02:26:09;;;;;;;;;;;;;;;22.00;28.46;97560.22;4998104;28;1131;-79
2022/06/25 02:28:34;;;;;;;;;;;;;;;21.53;29.28;97567.47;4997923;28;1053;-80
2022/06/25 02:31:00;;;;;;;;;;;;;;;21.48;29.05;97572.91;5014193;28;1019;-79
2022/06/25 02:33:26;;;;;;;;;;;;;;;21.35;29.32;97567.25;4997970;28;1123;-80
2022/06/25 02:39:17;;;;;;;;;;;;;;;21.09;29.66;97566.44;5036069;28;853;-79
2022/06/25 02:41:43;;;;;;;;;;;;;;;21.21;29.51;97574.13;5017893;28;1914;-79
2022/06/25 02:44:09;;;;;;;;;;;;;;;21.19;29.60;97576.63;5018852;28;1104;-79
2022/06/25 02:46:41;;;;;;;;;;;;;;;21.49;29.70;97577.31;5019418;28;1358;-79
2022/06/25 02:49:07;;;;;;;;;;;;;;;21.77;28.90;97579.19;5036330;28;895;-79
2022/06/25 02:51:32;;;;;;;;;;;;;;;21.85;28.59;97586.19;5001185;28;1327;-80
2022/06/25 02:53:59;;;;;;;;;;;;;;;21.48;29.22;97598.38;5018760;28;1151;-79
2022/06/25 02:59:09;;;;;;;;;;;;;;;21.40;29.30;97591.34;4997474;28;1040;-78
2022/06/25 03:01:38;;;;;;;;;;;;;;;21.45;28.84;97588.78;4997694;28;1984;-78
2022/06/25 03:04:03;;;;;;;;;;;;;;;21.56;28.71;97600.53;4997730;28;1370;-78
2022/06/25 03:06:29;;;;;;;;;;;;;;;21.39;29.26;97595.44;4997750;28;1099;-79
2022/06/25 03:08:56;;;;;;;;;;;;;;;21.35;29.05;97594.75;5014009;28;1066;-79
2022/06/25 03:11:21;;;;;;;;;;;;;;;21.74;29.26;97594.25;5159507;22;3964;-74
2022/06/25 03:13:48;;;;;;;;;;;;;;;22.42;29.14;97596.81;4994187;28;1273;-75
2022/06/25 03:16:14;;;;;;;;;;;;;;;22.01;29.93;97602.25;4994658;28;1202;-75
2022/06/25 03:18:40;;;;;;;;;;;;;;;21.65;30.82;97602.66;4994500;28;1065;-75
2022/06/25 03:21:40;;;;;;;;;;;;;;;21.26;30.94;97601.88;4879931;29;2412;-75
2022/06/25 03:24:07;;;;;;;;;;;;;;;21.19;31.25;97604.09;4861342;29;1368;-74
2022/06/25 03:26:34;;;;;;;;;;;;;;;21.30;30.68;97598.97;4861620;29;1095;-75
2022/06/25 03:29:02;;;;;;;;;;;;;;;21.20;30.87;97606.50;4845678;29;1199;-75
2022/06/25 03:31:29;;;;;;;;;;;;;;;21.50;30.54;97601.53;4861722;29;1080;-76
2022/06/25 03:33:58;;;;;;;;;;;;;;;21.21;30.83;97607.28;4861182;29;1370;-75
2022/06/25 03:36:33;;;;;;;;;;;;;;;21.17;31.09;97601.75;4861414;29;1314;-76
2022/06/25 03:38:59;;;;;;;;;;;;;;;21.27;30.77;97606.28;4846242;29;994;-75
2022/06/25 03:41:38;;;;;;;;;;;;;;;21.25;30.72;97611.59;4861505;29;1962;-75
2022/06/25 03:44:22;;;;;;;;;;;;;;;20.98;30.62;97614.03;4855747;29;987;-75
2022/06/25 03:46:53;;;;;;;;;;;;;;;21.59;30.30;97607.31;4880120;29;1317;-75
2022/06/25 03:49:19;;;;;;;;;;;;;;;21.97;29.64;97612.13;4849132;29;1131;-76
2022/06/25 03:52:10;;;;;;;;;;;;;;;22.04;29.35;97611.88;4873678;29;1007;-76
2022/06/25 03:54:37;;;;;;;;;;;;;;;21.65;29.91;97613.97;4884403;29;1143;-76
2022/06/25 03:57:03;;;;;;;;;;;;;;;21.52;30.10;97616.84;4901966;29;950;-76
2022/06/25 03:59:41;;;;;;;;;;;;;;;21.53;30.00;97617.63;4886452;29;1981;-76
2022/06/25 04:02:18;;;;;;;;;;;;;;;21.45;29.85;97619.91;4932651;29;1153;-76
2022/06/25 04:05:04;;;;;;;;;;;;;;;21.39;29.93;97618.84;4926629;29;1085;-76
2022/06/25 04:07:30;;;;;;;;;;;;;;;21.35;29.68;97623.03;4939592;29;1188;-76
2022/06/25 04:09:56;;;;;;;;;;;;;;;21.47;29.56;97619.44;4923665;29;1637;-75
2022/06/25 04:12:21;;;;;;;;;;;;;;;21.30;29.98;97624.44;4901708;29;1225;-76
2022/06/25 04:14:48;;;;;;;;;;;;;;;21.26;29.73;97627.34;4886103;29;1266;-75
2022/06/25 04:17:13;;;;;;;;;;;;;;;21.49;29.38;97626.22;4901735;29;1066;-75
2022/06/25 04:19:42;;;;;;;;;;;;;;;21.45;29.52;97621.91;4885762;29;1973;-75
2022/06/25 04:22:11;;;;;;;;;;;;;;;21.74;29.66;97624.63;4867040;29;1112;-76
2022/06/25 04:24:36;;;;;;;;;;;;;;;22.00;28.79;97629.00;4866969;29;1129;-76
2022/06/25 04:27:02;;;;;;;;;;;;;;;21.78;29.13;97628.94;4845742;29;1120;-75
2022/06/25 04:29:29;;;;;;;;;;;;;;;21.51;29.80;97631.44;4806783;29;1125;-76
2022/06/25 04:32:13;;;;;;;;;;;;;;;21.40;29.84;97643.13;4829764;29;1605;-76
2022/06/25 04:35:07;;;;;;;;;;;;;;;21.35;29.90;97640.03;4845371;29;1160;-75
2022/06/25 04:37:35;;;;;;;;;;;;;;;21.32;29.63;97653.84;4790518;29;1067;-75
2022/06/25 04:40:02;;;;;;;;;;;;;;;21.39;29.83;97658.47;4790832;29;1986;-75
2022/06/25 04:42:28;;;;;;;;;;;;;;;21.39;29.83;97654.88;4775689;30;1287;-76
2022/06/25 04:44:54;;;;;;;;;;;;;;;21.28;29.94;97647.47;4790857;30;1152;-76
2022/06/25 04:47:20;;;;;;;;;;;;;;;21.70;29.55;97661.53;4778475;29;1145;-76
2022/06/25 04:49:53;;;;;;;;;;;;;;;21.93;28.76;97662.44;4808908;29;1105;-76
2022/06/25 04:52:18;;;;;;;;;;;;;;;21.78;28.84;97660.06;4808660;29;1090;-76
2022/06/25 04:54:44;;;;;;;;;;;;;;;21.57;29.43;97663.59;4809064;29;1027;-76
2022/06/25 04:57:14;;;;;;;;;;;;;;;21.41;29.82;97667.34;4779067;29;1507;-76
2022/06/25 04:59:59;;;;;;;;;;;;;;;21.31;29.69;97669.25;4846844;29;1907;-75
2022/06/25 05:02:34;;;;;;;;;;;;;;;21.28;29.87;97675.78;4863589;29;1247;-75
2022/06/25 05:05:04;;;;;;;;;;;;;;;21.21;30.09;97670.34;4862800;29;1238;-76
2022/06/25 05:07:29;;;;;;;;;;;;;;;21.32;29.99;97665.16;4905525;29;910;-76
2022/06/25 05:09:55;;;;;;;;;;;;;;;21.44;29.46;97669.25;4922538;29;1644;-75
2022/06/25 05:15:05;;;;;;;;;;;;;;;21.22;30.22;97677.56;4920665;29;1117;-75
2022/06/25 05:17:32;;;;;;;;;;;;;;;21.26;30.07;97683.94;4922612;29;1084;-76
2022/06/25 05:19:57;;;;;;;;;;;;;;;21.38;29.81;97679.56;4903361;29;1904;-76
2022/06/25 05:22:24;;;;;;;;;;;;;;;21.76;29.52;97682.41;4854353;29;1561;-76
2022/06/25 05:24:50;;;;;;;;;;;;;;;21.84;29.30;97683.75;4826346;29;1095;-76
2022/06/25 05:27:15;;;;;;;;;;;;;;;21.41;30.14;97677.88;4826081;29;1133;-76
2022/06/25 05:29:40;;;;;;;;;;;;;;;21.49;29.79;97673.56;4826601;29;1094;-76
2022/06/25 05:32:06;;;;;;;;;;;;;;;21.44;30.06;97668.44;4844288;29;1035;-76
2022/06/25 05:34:32;;;;;;;;;;;;;;;21.38;29.92;97676.72;4829085;29;1271;-76
2022/06/25 05:36:57;;;;;;;;;;;;;;;21.30;30.11;97681.03;4819764;29;1261;-75
2022/06/25 05:39:22;;;;;;;;;;;;;;;21.31;30.13;97674.91;4790097;30;1119;-76
2022/06/25 05:41:48;;;;;;;;;;;;;;;21.28;30.09;97675.78;4789702;29;1907;-76
2022/06/25 05:44:13;;;;;;;;;;;;;;;21.27;29.98;97662.88;4789915;29;1163;-76
2022/06/25 05:46:39;;;;;;;;;;;;;;;21.41;29.81;97663.72;4771557;30;1353;-76
2022/06/25 05:49:04;;;;;;;;;;;;;;;21.49;30.30;97665.06;4825649;29;988;-76
2022/06/25 05:51:30;;;;;;;;;;;;;;;21.87;29.39;97669.94;4848176;29;966;-76
2022/06/25 05:53:56;;;;;;;;;;;;;;;21.93;29.52;97674.56;4884063;29;1053;-75
2022/06/25 05:56:21;;;;;;;;;;;;;;;21.62;29.96;97665.06;4899639;29;1143;-76
2022/06/25 05:58:47;;;;;;;;;;;;;;;21.55;29.83;97683.06;4899997;29;1072;-76
2022/06/25 06:01:12;;;;;;;;;;;;;;;21.52;30.00;97684.78;4899334;29;1910;-75
2022/06/25 06:03:38;;;;;;;;;;;;;;;21.38;30.61;97685.22;4913212;29;1056;-76
2022/06/25 06:06:03;;;;;;;;;;;;;;;21.34;30.16;97690.19;4918448;29;972;-76
2022/06/25 06:08:29;;;;;;;;;;;;;;;21.26;30.76;97692.41;4932256;29;1045;-76
2022/06/25 06:10:54;;;;;;;;;;;;;;;21.39;30.38;97692.44;4937656;29;1172;-76
2022/06/25 06:13:20;;;;;;;;;;;;;;;21.36;30.17;97687.72;4938310;29;971;-76
2022/06/25 06:15:45;;;;;;;;;;;;;;;21.41;29.90;97681.50;4955678;28;1003;-76
2022/06/25 06:18:11;;;;;;;;;;;;;;;21.43;29.99;97676.16;4970593;28;1040;-76
2022/06/25 06:20:36;;;;;;;;;;;;;;;21.27;30.19;97679.84;4975483;28;1985;-75
2022/06/25 06:23:02;;;;;;;;;;;;;;;21.29;30.43;97680.19;4956122;29;967;-76
2022/06/25 06:25:27;;;;;;;;;;;;;;;21.33;30.04;97674.44;4957768;28;1135;-76
2022/06/25 06:27:53;;;;;;;;;;;;;;;21.27;30.18;97685.50;4989603;28;1033;-75
2022/06/25 06:30:18;;;;;;;;;;;;;;;21.78;29.94;97674.25;4995497;28;972;-75
2022/06/25 06:32:44;;;;;;;;;;;;;;;21.81;29.96;97670.50;4995149;28;926;-76
2022/06/25 06:35:09;;;;;;;;;;;;;;;21.85;29.56;97662.66;4995215;28;973;-75
2022/06/25 06:37:35;;;;;;;;;;;;;;;21.61;29.91;97669.94;4975443;28;995;-76
2022/06/25 06:40:00;;;;;;;;;;;;;;;21.58;30.01;97670.84;4975719;28;1891;-76
2022/06/25 06:42:26;;;;;;;;;;;;;;;21.44;30.26;97682.59;4975696;28;1052;-76
2022/06/25 06:44:53;;;;;;;;;;;;;;;21.51;30.13;97671.09;4917843;29;1320;-76
2022/06/25 06:47:19;;;;;;;;;;;;;;;21.51;30.17;97673.91;4918067;29;1046;-76
2022/06/25 06:49:44;;;;;;;;;;;;;;;21.44;30.06;97688.28;4917878;29;1018;-76
2022/06/25 06:52:10;;;;;;;;;;;;;;;21.29;30.42;97682.22;4918354;29;1055;-76
2022/06/25 06:54:36;;;;;;;;;;;;;;;21.38;30.30;97678.75;4917895;29;955;-75
2022/06/25 06:57:02;;;;;;;;;;;;;;;21.41;30.21;97669.38;4917694;29;950;-76
2022/06/25 06:59:27;;;;;;;;;;;;;;;21.49;30.24;97667.88;4886154;29;1066;-76
2022/06/25 07:01:52;;;;;;;;;;;;;;;21.44;30.27;97668.44;4917889;29;1903;-76
2022/06/25 07:04:18;;;;;;;;;;;;;;;21.32;30.32;97668.00;4917834;29;1035;-76
2022/06/25 07:06:43;;;;;;;;;;;;;;;21.33;30.17;97672.41;4918085;29;959;-76
2022/06/25 07:09:09;;;;;;;;;;;;;;;21.32;30.46;97667.22;4917871;29;987;-76
2022/06/25 07:11:34;;;;;;;;;;;;;;;21.32;30.31;97682.16;4917766;29;1041;-76
2022/06/25 07:14:01;;;;;;;;;;;;;;;21.26;30.56;97681.09;4919166;29;940;-76
2022/06/25 07:16:26;;;;;;;;;;;;;;;21.31;30.38;97674.91;4945284;29;980;-76
2022/06/25 07:18:52;;;;;;;;;;;;;;;21.25;30.35;97679.50;4955898;29;991;-76
2022/06/25 07:21:17;;;;;;;;;;;;;;;21.20;30.63;97685.72;4959108;28;1978;-76
2022/06/25 07:23:43;;;;;;;;;;;;;;;21.10;30.66;97686.06;4995018;28;1009;-75
2022/06/25 07:26:08;;;;;;;;;;;;;;;21.17;30.50;97691.50;4994714;28;991;-75
2022/06/25 07:28:33;;;;;;;;;;;;;;;21.25;30.60;97688.00;4997931;28;1075;-75
2022/06/25 07:30:59;;;;;;;;;;;;;;;21.79;30.45;97692.81;4998403;28;1013;-76
2022/06/25 07:33:25;;;;;;;;;;;;;;;22.00;30.19;97685.66;4998356;28;1007;-76
2022/06/25 07:35:50;;;;;;;;;;;;;;;21.90;30.70;97680.34;4998171;28;966;-76
2022/06/25 07:38:16;;;;;;;;;;;;;;;21.66;30.83;97677.88;4998660;28;944;-76
2022/06/25 07:40:41;;;;;;;;;;;;;;;21.48;31.15;97686.13;4998151;28;1902;-76
2022/06/25 07:43:06;;;;;;;;;;;;;;;21.34;31.47;97684.50;4998378;28;961;-76
2022/06/25 07:45:32;;;;;;;;;;;;;;;21.42;31.22;97682.28;4949878;28;935;-76
2022/06/25 07:47:57;;;;;;;;;;;;;;;21.49;30.78;97670.72;5013816;28;965;-76
2022/06/25 07:53:07;;;;;;;;;;;;;;;21.44;30.82;97688.28;5019760;28;966;-77
2022/06/25 07:55:32;;;;;;;;;;;;;;;21.38;30.75;97679.56;5019938;28;932;-76
2022/06/25 07:57:58;;;;;;;;;;;;;;;21.43;30.84;97689.53;5020049;28;970;-76
2022/06/25 08:00:23;;;;;;;;;;;;;;;21.32;31.09;97687.81;5019744;28;1979;-76
2022/06/25 08:02:49;;;;;;;;;;;;;;;21.40;30.68;97682.75;5019603;28;962;-75
2022/06/25 08:05:14;;;;;;;;;;;;;;;21.42;30.64;97679.44;5001391;28;1044;-75
2022/06/25 08:07:40;;;;;;;;;;;;;;;21.13;31.30;97683.09;5019878;28;913;-76
2022/06/25 08:10:05;;;;;;;;;;;;;;;21.32;31.00;97670.81;5019380;28;952;-76
2022/06/25 08:12:31;;;;;;;;;;;;;;;21.30;30.94;97681.03;5019828;28;1032;-76
2022/06/25 08:14:56;;;;;;;;;;;;;;;21.22;31.06;97683.22;5019875;28;952;-76
2022/06/25 08:17:22;;;;;;;;;;;;;;;21.21;31.23;97686.53;5019761;28;935;-75
2022/06/25 08:19:47;;;;;;;;;;;;;;;21.49;30.25;97680.00;5019365;28;1898;-75
2022/06/25 08:22:12;;;;;;;;;;;;;;;21.75;31.09;97680.78;5019897;28;880;-76
2022/06/25 08:24:38;;;;;;;;;;;;;;;22.01;30.48;97677.94;5000800;28;981;-76
2022/06/25 08:27:03;;;;;;;;;;;;;;;21.93;30.48;97682.28;5019375;28;887;-77
2022/06/25 08:29:29;;;;;;;;;;;;;;;21.57;31.12;97674.94;5000722;28;1058;-75
2022/06/25 08:31:54;;;;;;;;;;;;;;;21.52;31.61;97675.50;5019125;28;922;-76
2022/06/25 08:34:20;;;;;;;;;;;;;;;21.54;31.13;97681.47;4996989;28;1025;-75
2022/06/25 08:36:45;;;;;;;;;;;;;;;21.54;31.08;97681.47;4997499;28;1127;-76
2022/06/25 08:39:11;;;;;;;;;;;;;;;21.64;30.80;97680.34;4995813;28;1017;-76
2022/06/25 08:41:36;;;;;;;;;;;;;;;21.61;30.74;97686.94;4980644;28;1914;-77
2022/06/25 08:44:01;;;;;;;;;;;;;;;21.41;31.02;97680.69;4980904;28;1111;-75
2022/06/25 08:46:27;;;;;;;;;;;;;;;21.37;31.26;97688.50;4997291;28;941;-76
2022/06/25 08:48:52;;;;;;;;;;;;;;;21.55;30.86;97683.88;4996736;28;1023;-75
2022/06/25 08:51:18;;;;;;;;;;;;;;;21.44;31.07;97686.22;4996998;28;934;-76
2022/06/25 08:53:43;;;;;;;;;;;;;;;21.44;31.01;97676.94;4996959;28;991;-76
2022/06/25 08:56:09;;;;;;;;;;;;;;;21.44;30.93;97691.09;4980899;28;1050;-75
2022/06/25 08:58:35;;;;;;;;;;;;;;;21.37;30.98;97683.63;4996905;28;1056;-77
2022/06/25 09:01:00;;;;;;;;;;;;;;;21.34;31.00;97687.34;4977377;28;1974;-78
2022/06/25 09:03:26;;;;;;;;;;;;;;;21.43;31.00;97687.47;4977928;28;1133;-78
2022/06/25 09:05:51;;;;;;;;;;;;;;;21.50;30.77;97692.13;4977835;28;895;-79
2022/06/25 09:08:17;;;;;;;;;;;;;;;21.27;31.00;97691.16;4958655;29;1021;-77
2022/06/25 09:10:43;;;;;;;;;;;;;;;21.22;30.83;97694.56;4958307;29;1367;-78
2022/06/25 09:13:09;;;;;;;;;;;;;;;21.41;30.63;97680.69;4919755;29;884;-78
2022/06/25 09:15:41;;;;;;;;;;;;;;;21.41;30.58;97683.53;4920157;29;974;-78
2022/06/25 09:18:07;;;;;;;;;;;;;;;21.38;30.73;97685.22;4920125;29;985;-78
2022/06/25 09:20:33;;;;;;;;;;;;;;;21.26;31.02;97686.75;4900933;29;1911;-78
2022/06/25 09:22:59;;;;;;;;;;;;;;;21.21;31.30;97681.66;4901048;29;935;-78
2022/06/25 09:25:26;;;;;;;;;;;;;;;21.21;31.00;97687.31;4863413;29;1075;-78
2022/06/25 09:27:51;;;;;;;;;;;;;;;21.18;31.00;97687.41;4863731;29;1080;-78
2022/06/25 09:30:17;;;;;;;;;;;;;;;21.12;31.07;97690.00;4863517;29;1298;-78
2022/06/25 09:32:42;;;;;;;;;;;;;;;21.16;31.11;97685.03;4848840;29;972;-78
2022/06/25 09:35:09;;;;;;;;;;;;;;;21.23;31.22;97681.19;4845076;29;970;-78
2022/06/25 09:37:34;;;;;;;;;;;;;;;21.26;30.76;97689.59;4845074;29;906;-78
2022/06/25 09:40:00;;;;;;;;;;;;;;;21.28;30.73;97698.41;4859774;29;1980;-78
2022/06/25 09:42:26;;;;;;;;;;;;;;;21.24;30.92;97686.41;4863520;29;918;-78
2022/06/25 09:45:18;;;;;;;;;;;;;;;21.30;30.66;97695.19;4878113;29;1038;-78
2022/06/25 09:47:43;;;;;;;;;;;;;;;21.28;30.92;97678.59;4844578;29;1081;-78
2022/06/25 09:50:13;;;;;;;;;;;;;;;21.18;30.92;97685.38;4844054;29;954;-79
2022/06/25 09:52:48;;;;;;;;;;;;;;;21.22;30.80;97688.91;4862201;29;1194;-79
2022/06/25 09:55:13;;;;;;;;;;;;;;;21.41;30.38;97677.88;4844801;29;950;-78
2022/06/25 09:57:39;;;;;;;;;;;;;;;21.65;31.09;97681.94;4881690;29;1083;-78
2022/06/25 10:00:04;;;;;;;;;;;;;;;21.97;31.23;97685.78;4862511;29;1911;-78
2022/06/25 10:02:35;;;;;;;;;;;;;;;21.96;31.35;97687.00;4844610;29;997;-78
2022/06/25 10:05:01;;;;;;;;;;;;;;;21.62;31.69;97682.84;4844252;29;961;-78
2022/06/25 10:07:59;;;;;;;;;;;;;;;21.57;31.65;97689.09;4844824;29;954;-78
2022/06/25 10:10:14;;;;;;;;;;;;;;;21.40;31.63;97693.25;4844125;29;986;-78
2022/06/25 10:12:39;;;;;;;;;;;;;;;21.39;31.64;97683.16;4844700;29;1211;-77
2022/06/25 10:15:05;;;;;;;;;;;;;;;21.46;31.23;97677.31;4847818;29;1357;-78
2022/06/25 10:17:30;;;;;;;;;;;;;;;21.53;31.18;97685.56;4862862;29;1016;-79
2022/06/25 10:19:56;;;;;;;;;;;;;;;21.40;31.37;97684.75;4862392;29;1907;-77
2022/06/25 10:22:21;;;;;;;;;;;;;;;21.39;31.38;97691.66;4863001;29;986;-78
2022/06/25 10:24:47;;;;;;;;;;;;;;;21.33;31.13;97689.38;4896710;29;1010;-78
2022/06/25 10:27:12;;;;;;;;;;;;;;;21.20;31.58;97685.72;4966763;28;974;-78
2022/06/25 10:29:37;;;;;;;;;;;;;;;21.20;31.44;97691.38;4995473;28;941;-79
2022/06/25 10:32:13;;;;;;;;;;;;;;;21.29;31.12;97682.22;5015573;28;936;-78
2022/06/25 10:34:38;;;;;;;;;;;;;;;21.32;30.72;97693.47;4982744;28;993;-78
2022/06/25 10:37:04;;;;;;;;;;;;;;;21.30;30.73;97695.97;5016135;28;1431;-78
2022/06/25 10:39:29;;;;;;;;;;;;;;;21.31;30.87;97689.06;5017002;28;943;-78
2022/06/25 10:45:28;;;;;;;;;;;;;;;21.48;30.52;97695.41;4937273;29;999;-79
2022/06/25 10:47:54;;;;;;;;;;;;;;;21.30;30.63;97693.13;4937499;29;1190;-78
2022/06/25 10:50:22;;;;;;;;;;;;;;;21.24;30.65;97697.75;4937797;29;948;-79
2022/06/25 10:53:02;;;;;;;;;;;;;;;21.41;30.29;97700.50;4937707;29;983;-78
2022/06/25 10:55:33;;;;;;;;;;;;;;;21.20;30.49;97702.72;4937242;29;1136;-78
2022/06/25 10:58:17;;;;;;;;;;;;;;;21.42;30.37;97697.22;4937299;29;1076;-78
2022/06/25 11:00:46;;;;;;;;;;;;;;;21.46;30.14;97694.28;4937311;29;1910;-78
2022/06/25 11:03:12;;;;;;;;;;;;;;;21.44;30.42;97693.94;4936844;28;990;-78
2022/06/25 11:05:41;;;;;;;;;;;;;;;21.69;30.81;97693.94;4937023;29;1008;-79
2022/06/25 11:08:07;;;;;;;;;;;;;;;21.90;30.88;97692.47;4937184;29;878;-79
2022/06/25 11:10:33;;;;;;;;;;;;;;;21.67;31.09;97702.09;4937559;29;950;-78
2022/06/25 11:12:59;;;;;;;;;;;;;;;21.51;31.21;97714.34;4937887;29;1473;-78
2022/06/25 11:15:25;;;;;;;;;;;;;;;21.54;30.94;97712.63;4921642;29;941;-78
2022/06/25 11:17:50;;;;;;;;;;;;;;;21.55;31.04;97717.84;4936986;29;959;-77
2022/06/25 11:20:17;;;;;;;;;;;;;;;21.50;30.87;97717.59;4946147;28;1903;-78
2022/06/25 11:22:45;;;;;;;;;;;;;;;21.40;30.89;97715.88;5016578;28;972;-79
2022/06/25 11:30:39;;;;;;;;;;;;;;;21.36;30.59;97709.56;5016351;28;953;-78
2022/06/25 11:33:07;;;;;;;;;;;;;;;21.42;30.56;97702.09;5017076;28;914;-78
2022/06/25 11:35:40;;;;;;;;;;;;;;;21.42;30.31;97707.75;5015275;28;974;-78
2022/06/25 11:38:12;;;;;;;;;;;;;;;21.37;30.30;97711.13;5015504;28;953;-78
2022/06/25 11:40:38;;;;;;;;;;;;;;;21.32;30.25;97699.13;5015536;28;1981;-79
2022/06/25 11:43:07;;;;;;;;;;;;;;;21.30;30.28;97690.31;5016386;28;960;-78
2022/06/25 11:45:32;;;;;;;;;;;;;;;21.14;30.85;97701.69;4962669;28;1116;-78
2022/06/25 11:47:58;;;;;;;;;;;;;;;21.47;30.13;97704.34;4994931;28;1087;-78
2022/06/25 11:50:23;;;;;;;;;;;;;;;21.41;29.96;97706.97;4995192;28;921;-78
2022/06/25 11:52:49;;;;;;;;;;;;;;;21.44;30.01;97710.91;4994932;28;970;-79
2022/06/25 11:55:14;;;;;;;;;;;;;;;21.27;30.28;97702.47;4978240;28;1495;-79
2022/06/25 11:57:41;;;;;;;;;;;;;;;21.26;30.33;97702.94;4994741;28;939;-78
2022/06/25 12:00:08;;;;;;;;;;;;;;;21.46;29.93;97699.94;4995146;28;1895;-78
2022/06/25 12:02:35;;;;;;;;;;;;;;;21.37;29.87;97697.00;4962571;28;939;-78
2022/06/25 12:05:02;;;;;;;;;;;;;;;21.41;30.28;97700.50;4994590;28;911;-78
2022/06/25 12:07:28;;;;;;;;;;;;;;;21.72;30.52;97701.53;4994927;28;1155;-78
2022/06/25 12:09:54;;;;;;;;;;;;;;;21.77;30.32;97695.31;4994643;28;1030;-78
2022/06/25 12:12:21;;;;;;;;;;;;;;;21.76;30.41;97696.56;4994253;28;1234;-79
2022/06/25 12:14:47;;;;;;;;;;;;;;;21.62;30.36;97682.84;4981625;28;973;-78
2022/06/25 12:17:13;;;;;;;;;;;;;;;21.46;30.32;97702.78;5013594;28;897;-79
2022/06/25 12:19:44;;;;;;;;;;;;;;;21.42;30.57;97702.09;5017345;28;1013;-78
2022/06/25 12:22:19;;;;;;;;;;;;;;;21.25;30.69;97710.63;5018010;28;917;-78
2022/06/25 12:24:45;;;;;;;;;;;;;;;21.24;30.72;97709.06;5001169;28;1034;-78
2022/06/25 12:27:10;;;;;;;;;;;;;;;21.22;30.73;97696.59;5016580;28;970;-79
2022/06/25 12:29:36;;;;;;;;;;;;;;;21.26;30.66;97703.72;5019667;28;881;-78
2022/06/25 12:32:01;;;;;;;;;;;;;;;21.32;30.55;97704.78;5020034;28;854;-78
2022/06/25 12:34:27;;;;;;;;;;;;;;;21.14;30.74;97707.34;5019893;28;1110;-78
2022/06/25 12:36:53;;;;;;;;;;;;;;;21.25;30.64;97721.16;5019515;28;880;-78
2022/06/25 12:39:27;;;;;;;;;;;;;;;21.25;30.60;97716.31;4978119;28;1009;-79
2022/06/25 12:41:52;;;;;;;;;;;;;;;21.38;30.42;97719.16;4978039;28;1918;-79
2022/06/25 12:44:19;;;;;;;;;;;;;;;21.33;30.44;97712.03;4977897;28;930;-79
2022/06/25 12:46:57;;;;;;;;;;;;;;;21.35;30.11;97724.94;4977876;28;899;-78
2022/06/25 12:49:22;;;;;;;;;;;;;;;21.39;30.05;97719.97;4977941;28;982;-78
2022/06/25 12:51:48;;;;;;;;;;;;;;;21.21;30.27;97726.94;4977672;28;1048;-78
2022/06/25 12:54:13;;;;;;;;;;;;;;;21.19;30.18;97734.25;4977847;28;966;-78
2022/06/25 12:56:39;;;;;;;;;;;;;;;21.42;29.88;97725.53;4961784;28;1110;-78
2022/06/25 12:59:06;;;;;;;;;;;;;;;21.63;30.01;97724.06;4977760;28;1032;-78
2022/06/25 13:01:33;;;;;;;;;;;;;;;21.74;30.22;97718.88;4958239;29;1991;-78
2022/06/25 13:04:00;;;;;;;;;;;;;;;21.97;29.81;97714.13;4958388;29;1004;-77
2022/06/25 13:06:25;;;;;;;;;;;;;;;21.67;30.39;97716.28;4958054;28;1042;-78
2022/06/25 13:08:51;;;;;;;;;;;;;;;21.57;30.61;97723.06;4958341;29;936;-78
2022/06/25 13:11:20;;;;;;;;;;;;;;;21.50;30.59;97715.59;4973613;28;1064;-78
2022/06/25 13:13:46;;;;;;;;;;;;;;;21.44;30.50;97722.22;4938624;29;978;-78
2022/06/25 13:16:12;;;;;;;;;;;;;;;21.48;30.31;97725.75;4939001;29;1054;-77
2022/06/25 13:18:37;;;;;;;;;;;;;;;21.38;30.62;97721.22;4938906;29;1013;-77
2022/06/25 13:21:03;;;;;;;;;;;;;;;21.47;30.24;97727.00;4938761;29;1915;-78
2022/06/25 13:23:28;;;;;;;;;;;;;;;21.42;30.26;97733.22;4938974;29;1080;-78